createdAt,value
2022-09-22T00:01:27.824Z,99953.66
2022-09-22T00:03:58.137Z,99955.69
2022-09-22T00:06:26.808Z,99958.03
2022-09-22T00:08:55.532Z,99952.34
2022-09-22T00:11:25.054Z,99957.03
2022-09-22T00:13:54.766Z,99955.38
2022-09-22T00:16:24.664Z,99953.53
2022-09-22T00:18:52.659Z,99950.66
2022-09-22T00:21:23.582Z,99954.03
2022-09-22T00:23:52.213Z,99943.28
2022-09-22T00:26:21.711Z,99944.94
2022-09-22T00:28:51.258Z,99939.41
2022-09-22T00:31:20.335Z,99940.25
2022-09-22T00:33:48.339Z,99941.25
2022-09-22T00:36:16.686Z,99935.41
2022-09-22T00:38:46.614Z,99946.31
2022-09-22T00:41:18.869Z,99952.34
2022-09-22T00:43:48.317Z,99947.31
2022-09-22T00:46:17.932Z,99943.28
2022-09-22T00:48:49.417Z,99951.03
2022-09-22T00:51:18.001Z,99941.63
2022-09-22T00:53:47.338Z,99945.81
2022-09-22T00:56:16.249Z,99941.31
2022-09-22T00:58:46.665Z,99944.16
2022-09-22T01:01:15.595Z,99948.84
2022-09-22T01:03:43.943Z,99945.63
2022-09-22T01:06:13.738Z,99935.59
2022-09-22T01:08:43.656Z,99946.84
2022-09-22T01:11:13.260Z,99945.16
2022-09-22T01:13:43.416Z,99945.81
2022-09-22T01:16:23.029Z,99948.00
2022-09-22T01:18:57.952Z,99932.06
2022-09-22T01:21:33.780Z,99942.78
2022-09-22T01:24:35.171Z,99949.31
2022-09-22T01:27:44.152Z,99948.16
2022-09-22T01:30:21.043Z,99938.09
2022-09-22T01:33:02.913Z,99952.16
2022-09-22T01:35:32.710Z,99948.63
2022-09-22T01:38:05.511Z,99953.34
2022-09-22T01:40:35.594Z,99956.03
2022-09-22T01:43:09.055Z,99952.00
2022-09-22T01:45:38.343Z,99953.00
2022-09-22T01:48:09.118Z,99959.06
2022-09-22T01:50:40.891Z,99950.84
2022-09-22T01:53:10.687Z,99956.38
2022-09-22T01:55:39.457Z,99964.09
2022-09-22T01:58:08.675Z,99960.72
2022-09-22T02:00:38.529Z,99958.00
2022-09-22T02:03:07.984Z,99951.97
2022-09-22T02:05:38.777Z,99957.16
2022-09-22T02:08:09.992Z,99955.63
2022-09-22T02:10:39.671Z,99949.91
2022-09-22T02:13:07.592Z,99947.22
2022-09-22T02:15:53.026Z,99951.22
2022-09-22T02:18:24.215Z,99949.22
2022-09-22T02:20:52.768Z,99944.19
2022-09-22T02:23:20.690Z,99941.19
2022-09-22T02:25:48.605Z,99948.91
2022-09-22T02:28:17.485Z,99946.75
2022-09-22T02:31:04.366Z,99947.44
2022-09-22T02:33:38.178Z,99946.59
2022-09-22T02:36:14.964Z,99944.94
2022-09-22T02:38:45.770Z,99944.63
2022-09-22T02:41:16.296Z,99952.00
2022-09-22T02:43:47.824Z,99943.97
2022-09-22T02:46:19.524Z,99951.34
2022-09-22T02:48:49.542Z,99948.84
2022-09-22T02:51:18.489Z,99956.03
2022-09-22T02:53:46.414Z,99954.53
2022-09-22T02:56:14.356Z,99953.84
2022-09-22T02:58:42.281Z,99955.03
2022-09-22T03:01:10.244Z,99957.22
2022-09-22T03:03:38.212Z,99958.88
2022-09-22T03:06:07.850Z,99961.72
2022-09-22T03:08:36.796Z,99958.56
2022-09-22T03:11:04.814Z,99963.09
2022-09-22T03:13:32.750Z,99971.97
2022-09-22T03:16:00.734Z,99970.13
2022-09-22T03:18:28.723Z,99979.50
2022-09-22T03:20:56.685Z,99982.72
2022-09-22T03:23:26.050Z,99978.50
2022-09-22T03:25:53.994Z,99971.50
2022-09-22T03:28:22.040Z,99970.81
2022-09-22T03:30:50.051Z,99977.16
2022-09-22T03:33:18.029Z,99974.84
2022-09-22T03:35:45.997Z,99974.84
2022-09-22T03:38:13.892Z,99975.16
2022-09-22T03:40:43.438Z,99989.91
2022-09-22T03:43:16.468Z,99993.97
2022-09-22T03:45:44.738Z,99994.59
2022-09-22T03:48:12.752Z,99995.81
2022-09-22T03:50:40.683Z,99994.44
2022-09-22T03:53:08.613Z,99993.59
2022-09-22T03:55:37.300Z,99997.13
2022-09-22T03:58:06.589Z,100000.31
2022-09-22T04:00:34.512Z,99993.44
2022-09-22T04:03:02.429Z,99999.31
2022-09-22T04:05:30.333Z,100005.69
2022-09-22T04:07:58.289Z,100004.69
2022-09-22T04:10:26.924Z,100013.22
2022-09-22T04:12:54.859Z,100008.38
2022-09-22T04:15:24.168Z,100000.66
2022-09-22T04:17:52.107Z,100011.72
2022-09-22T04:20:20.060Z,100001.31
2022-09-22T04:22:47.989Z,99999.66
2022-09-22T04:25:16.104Z,100006.69
2022-09-22T04:27:44.031Z,99997.94
2022-09-22T04:30:13.070Z,100001.63
2022-09-22T04:32:42.395Z,99996.59
2022-09-22T04:35:10.701Z,100001.59
2022-09-22T04:37:38.628Z,99993.56
2022-09-22T04:40:07.566Z,99998.06
2022-09-22T04:42:35.503Z,100006.28
2022-09-22T04:45:03.447Z,100002.72
2022-09-22T04:47:31.453Z,99992.16
2022-09-22T04:50:00.865Z,100000.31
2022-09-22T04:52:28.802Z,99995.25
2022-09-22T04:54:56.751Z,99996.47
2022-09-22T04:57:24.703Z,99995.41
2022-09-22T04:59:52.599Z,99998.41
2022-09-22T05:02:20.532Z,100002.75
2022-09-22T05:04:48.457Z,100002.22
2022-09-22T05:07:17.735Z,99996.78
2022-09-22T05:09:46.141Z,99998.56
2022-09-22T05:12:14.092Z,99991.09
2022-09-22T05:14:42.339Z,99996.69
2022-09-22T05:17:10.259Z,99997.91
2022-09-22T05:19:38.654Z,100000.34
2022-09-22T05:22:06.607Z,99986.47
2022-09-22T05:24:35.962Z,100001.34
2022-09-22T05:27:04.845Z,99992.16
2022-09-22T05:29:33.028Z,99996.03
2022-09-22T05:32:01.048Z,99997.31
2022-09-22T05:34:28.987Z,100008.66
2022-09-22T05:36:56.912Z,100008.78
2022-09-22T05:39:24.902Z,100003.13
2022-09-22T05:41:54.189Z,100006.28
2022-09-22T05:44:23.657Z,99996.56
2022-09-22T05:46:51.585Z,100000.19
2022-09-22T05:49:19.511Z,99999.03
2022-09-22T05:51:47.611Z,100001.19
2022-09-22T05:54:18.037Z,100002.75
2022-09-22T05:56:48.001Z,99998.88
2022-09-22T05:59:17.294Z,100008.16
2022-09-22T06:01:45.239Z,100002.88
2022-09-22T06:04:13.191Z,100004.63
2022-09-22T06:06:41.947Z,100003.59
2022-09-22T06:09:09.859Z,100005.00
2022-09-22T06:11:37.804Z,100002.19
2022-09-22T06:14:05.764Z,100007.56
2022-09-22T06:16:35.128Z,100003.16
2022-09-22T06:19:03.324Z,100004.25
2022-09-22T06:21:31.238Z,100006.72
2022-09-22T06:23:59.208Z,100004.25
2022-09-22T06:26:27.210Z,100005.50
2022-09-22T06:28:55.121Z,99999.47
2022-09-22T06:31:23.084Z,99999.31
2022-09-22T06:33:54.624Z,100010.56
2022-09-22T06:36:31.208Z,99998.50
2022-09-22T06:38:59.422Z,100004.28
2022-09-22T06:41:27.479Z,100005.78
2022-09-22T06:43:56.187Z,100009.72
2022-09-22T06:46:24.676Z,100019.34
2022-09-22T06:48:56.753Z,100011.84
2022-09-22T06:51:25.487Z,100012.47
2022-09-22T06:53:54.844Z,100011.84
2022-09-22T06:56:23.655Z,100003.78
2022-09-22T06:59:08.860Z,100013.19
2022-09-22T07:01:37.864Z,100001.41
2022-09-22T07:04:07.289Z,100002.88
2022-09-22T07:06:37.167Z,99991.69
2022-09-22T07:09:05.470Z,99998.44
2022-09-22T07:11:37.458Z,99997.78
2022-09-22T07:14:08.627Z,100000.13
2022-09-22T07:16:37.245Z,100006.28
2022-09-22T07:19:05.898Z,99995.31
2022-09-22T07:21:38.320Z,100002.44
2022-09-22T07:24:08.334Z,100003.88
2022-09-22T07:26:37.141Z,100012.56
2022-09-22T07:29:06.183Z,100014.00
2022-09-22T07:31:34.835Z,100007.28
2022-09-22T07:34:02.948Z,100008.06
2022-09-22T07:36:31.715Z,100011.91
2022-09-22T07:39:04.120Z,100005.00
2022-09-22T07:41:34.104Z,100017.06
2022-09-22T07:44:22.766Z,100016.56
2022-09-22T07:46:50.739Z,100020.25
2022-09-22T07:49:19.686Z,100013.31
2022-09-22T07:51:47.625Z,100015.31
2022-09-22T07:54:17.054Z,100016.63
2022-09-22T07:56:45.573Z,100007.34
2022-09-22T07:59:15.174Z,100011.75
2022-09-22T08:01:44.336Z,100010.09
2022-09-22T08:04:15.637Z,100007.06
2022-09-22T08:06:43.773Z,100005.03
2022-09-22T08:09:11.726Z,100006.63
2022-09-22T08:11:41.107Z,100004.03
2022-09-22T08:14:09.690Z,100009.78
2022-09-22T08:16:39.575Z,100004.03
2022-09-22T08:19:10.749Z,100003.78
2022-09-22T08:21:47.738Z,99989.94
2022-09-22T08:24:17.586Z,99990.75
2022-09-22T08:26:48.372Z,99995.88
2022-09-22T08:29:16.670Z,99994.03
2022-09-22T08:31:45.365Z,99989.44
2022-09-22T08:34:14.167Z,99987.63
2022-09-22T08:36:48.706Z,99995.06
2022-09-22T08:39:17.159Z,99978.59
2022-09-22T08:41:55.443Z,99995.78
2022-09-22T08:44:24.577Z,99983.53
2022-09-22T08:46:52.528Z,99985.75
2022-09-22T08:49:42.354Z,99983.81
2022-09-22T08:52:15.831Z,99987.28
2022-09-22T08:54:44.326Z,99985.22
2022-09-22T08:57:29.317Z,99981.28
2022-09-22T09:00:01.108Z,99975.09
2022-09-22T09:02:36.016Z,99991.38
2022-09-22T09:05:31.732Z,99982.06
2022-09-22T09:08:02.658Z,99965.84
2022-09-22T09:10:39.875Z,99982.09
2022-09-22T09:13:20.080Z,99981.28
2022-09-22T09:15:56.823Z,99979.84
2022-09-22T09:18:26.876Z,99982.78
2022-09-22T09:20:54.809Z,99973.34
2022-09-22T09:23:24.746Z,99976.75
2022-09-22T09:25:54.373Z,99960.47
2022-09-22T09:28:27.905Z,99970.50
2022-09-22T09:31:05.222Z,99955.50
2022-09-22T09:33:34.655Z,99959.16
2022-09-22T09:36:02.808Z,99958.13
2022-09-22T09:38:32.287Z,99957.16
2022-09-22T09:41:02.743Z,99960.31
2022-09-22T09:43:33.497Z,99957.63
2022-09-22T09:46:10.695Z,99956.34
2022-09-22T09:48:42.171Z,99952.91
2022-09-22T09:51:12.620Z,99946.16
2022-09-22T09:53:43.440Z,99951.53
2022-09-22T09:56:20.993Z,99943.13
2022-09-22T09:59:15.116Z,99946.50
2022-09-22T10:01:44.276Z,99943.13
2022-09-22T10:04:19.657Z,99952.84
2022-09-22T10:06:47.658Z,99945.50
2022-09-22T10:09:25.106Z,99945.41
2022-09-22T10:12:00.656Z,99945.75
2022-09-22T10:14:31.484Z,99951.00
2022-09-22T10:16:59.423Z,99941.25
2022-09-22T10:19:29.641Z,99930.66
2022-09-22T10:22:23.676Z,99924.38
2022-09-22T10:24:59.609Z,99922.47
2022-09-22T10:27:28.423Z,99928.13
2022-09-22T10:30:24.025Z,99933.44
2022-09-22T10:33:17.246Z,99913.31
2022-09-22T10:35:46.371Z,99929.88
2022-09-22T10:38:16.907Z,99924.91
2022-09-22T10:40:46.172Z,99929.22
2022-09-22T10:43:37.069Z,99916.00
2022-09-22T10:46:17.103Z,99917.66
2022-09-22T10:48:48.064Z,99916.66
2022-09-22T10:51:17.596Z,99915.91
2022-09-22T10:53:58.153Z,99901.31
2022-09-22T10:56:30.195Z,99897.84
2022-09-22T10:59:16.874Z,99898.34
2022-09-22T11:01:52.901Z,99897.53
2022-09-22T11:04:28.981Z,99898.13
2022-09-22T11:07:23.610Z,99899.66
2022-09-22T11:10:20.025Z,99887.19
2022-09-22T11:12:51.615Z,99885.81
2022-09-22T11:15:35.328Z,99884.84
2022-09-22T11:18:27.827Z,99874.97
2022-09-22T11:20:58.692Z,99882.75
2022-09-22T11:23:48.414Z,99882.56
2022-09-22T11:26:28.992Z,99887.00
2022-09-22T11:29:12.591Z,99871.84
2022-09-22T11:31:43.167Z,99867.63
2022-09-22T11:34:44.118Z,99865.19
2022-09-22T11:37:28.325Z,99866.88
2022-09-22T11:40:04.497Z,99867.72
2022-09-22T11:42:35.078Z,99859.72
2022-09-22T11:45:06.156Z,99860.22
2022-09-22T11:47:41.560Z,99864.53
2022-09-22T11:50:24.752Z,99862.03
2022-09-22T11:53:13.129Z,99873.06
2022-09-22T11:55:43.222Z,99863.84
2022-09-22T11:58:15.083Z,99860.19
2022-09-22T12:00:45.720Z,99863.75
2022-09-22T12:03:16.832Z,99861.22
2022-09-22T12:05:47.891Z,99856.63
2022-09-22T12:08:17.222Z,99852.69
2022-09-22T12:10:45.900Z,99854.34
2022-09-22T12:13:15.375Z,99852.31
2022-09-22T12:15:46.854Z,99860.75
2022-09-22T12:18:18.148Z,99852.25
2022-09-22T12:20:56.126Z,99852.19
2022-09-22T12:23:40.937Z,99843.91
2022-09-22T12:26:09.659Z,99845.59
2022-09-22T12:28:42.163Z,99844.97
2022-09-22T12:31:12.971Z,99837.91
2022-09-22T12:33:46.441Z,99834.25
2022-09-22T12:36:15.835Z,99827.59
2022-09-22T12:38:44.434Z,99836.44
2022-09-22T12:41:17.557Z,99833.53
2022-09-22T12:43:45.894Z,99834.47
2022-09-22T12:46:20.965Z,99835.22
2022-09-22T12:48:48.942Z,99832.59
2022-09-22T12:51:30.417Z,99836.84
2022-09-22T12:54:37.811Z,99837.94
2022-09-22T12:57:37.970Z,99835.53
2022-09-22T13:00:32.158Z,99835.44
2022-09-22T13:03:01.501Z,99834.59
2022-09-22T13:05:36.017Z,99827.31
2022-09-22T13:08:05.408Z,99833.56
2022-09-22T13:10:43.714Z,99821.38
2022-09-22T13:13:12.248Z,99827.63
2022-09-22T13:15:56.987Z,99818.25
2022-09-22T13:18:32.616Z,99819.47
2022-09-22T13:21:01.008Z,99818.94
2022-09-22T13:23:30.353Z,99809.31
2022-09-22T13:26:06.771Z,99820.94
2022-09-22T13:28:34.851Z,99809.91
2022-09-22T13:31:06.156Z,99813.56
2022-09-22T13:33:35.191Z,99818.31
2022-09-22T13:36:04.841Z,99811.47
2022-09-22T13:38:35.606Z,99804.34
2022-09-22T13:41:03.554Z,99812.19
2022-09-22T13:43:33.585Z,99812.88
2022-09-22T13:46:01.632Z,99816.41
2022-09-22T13:48:31.382Z,99810.00
2022-09-22T13:51:01.611Z,99813.28
2022-09-22T13:53:29.561Z,99803.22
2022-09-22T13:55:58.890Z,99807.63
2022-09-22T13:58:31.588Z,99800.72
2022-09-22T14:01:15.755Z,99801.56
2022-09-22T14:03:43.992Z,99808.09
2022-09-22T14:06:13.693Z,99808.88
2022-09-22T14:08:41.751Z,99810.56
2022-09-22T14:11:15.467Z,99794.75
2022-09-22T14:13:44.727Z,99807.25
2022-09-22T14:16:21.249Z,99802.88
2022-09-22T14:18:50.226Z,99801.22
2022-09-22T14:21:18.165Z,99801.97
2022-09-22T14:23:47.184Z,99805.25
2022-09-22T14:26:33.367Z,99809.88
2022-09-22T14:29:09.288Z,99814.00
2022-09-22T14:31:37.271Z,99809.47
2022-09-22T14:34:07.263Z,99817.88
2022-09-22T14:36:36.937Z,99820.66
2022-09-22T14:39:09.905Z,99809.53
2022-09-22T14:41:40.258Z,99810.53
2022-09-22T14:44:26.554Z,99806.22
2022-09-22T14:46:56.431Z,99805.41
2022-09-22T14:49:37.588Z,99808.88
2022-09-22T14:52:07.573Z,99806.00
2022-09-22T14:54:36.036Z,99772.16
2022-09-22T14:57:07.564Z,99810.03
2022-09-22T14:59:54.271Z,99812.47
2022-09-22T15:02:35.652Z,99811.88
2022-09-22T15:05:04.519Z,99805.59
2022-09-22T15:07:33.675Z,99810.94
2022-09-22T15:10:02.487Z,99806.75
2022-09-22T15:12:37.950Z,99810.53
2022-09-22T15:15:16.809Z,99810.84
2022-09-22T15:18:02.383Z,99812.66
2022-09-22T15:20:34.982Z,99815.22
2022-09-22T15:23:03.029Z,99819.00
2022-09-22T15:25:30.942Z,99818.72
2022-09-22T15:28:00.315Z,99817.63
2022-09-22T15:30:32.223Z,99820.75
2022-09-22T15:33:00.276Z,99826.41
2022-09-22T15:35:28.437Z,99828.63
2022-09-22T15:37:56.371Z,99822.59
2022-09-22T15:40:24.850Z,99821.41
2022-09-22T15:43:11.620Z,99824.38
2022-09-22T15:45:47.642Z,99819.03
2022-09-22T15:48:27.688Z,99833.91
2022-09-22T15:50:56.073Z,99831.25
2022-09-22T15:53:24.212Z,99828.19
2022-09-22T15:55:52.741Z,99828.84
2022-09-22T15:58:22.881Z,99829.91
2022-09-22T16:00:53.224Z,99828.88
2022-09-22T16:03:24.036Z,99837.22
2022-09-22T16:05:56.681Z,99815.97
2022-09-22T16:08:28.494Z,99835.97
2022-09-22T16:10:56.857Z,99827.84
2022-09-22T16:13:25.093Z,99828.47
2022-09-22T16:15:54.942Z,99838.47
2022-09-22T16:18:23.322Z,99835.34
2022-09-22T16:20:51.858Z,99839.28
2022-09-22T16:23:20.065Z,99848.41
2022-09-22T16:25:53.613Z,99847.16
2022-09-22T16:28:21.642Z,99844.81
2022-09-22T16:30:49.772Z,99852.84
2022-09-22T16:33:19.085Z,99851.56
2022-09-22T16:35:47.216Z,99851.94
2022-09-22T16:38:15.686Z,99856.50
2022-09-22T16:40:44.358Z,99853.78
2022-09-22T16:43:13.238Z,99847.88
2022-09-22T16:45:58.474Z,99860.91
2022-09-22T16:48:28.184Z,99859.63
2022-09-22T16:50:56.251Z,99867.50
2022-09-22T16:53:24.269Z,99869.31
2022-09-22T16:55:52.930Z,99875.28
2022-09-22T16:58:20.939Z,99878.94
2022-09-22T17:00:48.979Z,99877.69
2022-09-22T17:03:18.807Z,99880.56
2022-09-22T17:05:48.148Z,99841.25
2022-09-22T17:08:16.485Z,99879.38
2022-09-22T17:10:45.098Z,99884.47
2022-09-22T17:13:12.993Z,99883.41
2022-09-22T17:15:43.937Z,99889.13
2022-09-22T17:18:12.535Z,99889.06
2022-09-22T17:20:40.451Z,99894.19
2022-09-22T17:23:09.899Z,99893.28
2022-09-22T17:25:38.231Z,99892.94
2022-09-22T17:28:06.520Z,99903.50
2022-09-22T17:30:34.487Z,99900.97
2022-09-22T17:33:02.445Z,99903.44
2022-09-22T17:35:30.383Z,99907.69
2022-09-22T17:37:58.531Z,99902.88
2022-09-22T17:40:27.860Z,99910.25
2022-09-22T17:42:57.206Z,99912.75
2022-09-22T17:45:25.125Z,99906.72
2022-09-22T17:48:10.652Z,99911.47
2022-09-22T17:50:55.983Z,99905.66
2022-09-22T17:53:41.380Z,99911.34
2022-09-22T17:56:13.087Z,99912.38
2022-09-22T17:58:41.314Z,99906.59
2022-09-22T18:01:09.221Z,99914.94
2022-09-22T18:03:37.196Z,99892.28
2022-09-22T18:06:09.312Z,99922.78
2022-09-22T18:08:44.558Z,99913.88
2022-09-22T18:11:14.211Z,99921.94
2022-09-22T18:13:42.139Z,99922.13
2022-09-22T18:16:21.119Z,99922.50
2022-09-22T18:18:49.107Z,99919.81
2022-09-22T18:21:17.639Z,99923.91
2022-09-22T18:23:45.609Z,99924.28
2022-09-22T18:26:17.901Z,99920.09
2022-09-22T18:28:45.875Z,99927.09
2022-09-22T18:31:14.357Z,99917.31
2022-09-22T18:33:43.481Z,99918.72
2022-09-22T18:36:11.473Z,99919.09
2022-09-22T18:38:42.268Z,99921.81
2022-09-22T18:41:10.211Z,99926.91
2022-09-22T18:43:41.330Z,99928.97
2022-09-22T18:46:09.920Z,99923.56
2022-09-22T18:48:41.749Z,99916.03
2022-09-22T18:51:09.756Z,99916.56
2022-09-22T18:53:37.924Z,99922.34
2022-09-22T18:56:10.322Z,99916.69
2022-09-22T18:58:39.800Z,99914.28
2022-09-22T19:01:07.741Z,99916.31
2022-09-22T19:03:36.299Z,99911.28
2022-09-22T19:06:04.216Z,99907.56
2022-09-22T19:08:32.164Z,99904.03
2022-09-22T19:11:00.133Z,99900.50
2022-09-22T19:13:28.673Z,99904.63
2022-09-22T19:15:58.239Z,99902.63
2022-09-22T19:18:26.234Z,99902.38
2022-09-22T19:20:54.169Z,99898.66
2022-09-22T19:23:22.095Z,99895.47
2022-09-22T19:25:51.869Z,99897.69
2022-09-22T19:28:19.857Z,99905.97
2022-09-22T19:30:47.852Z,99908.84
2022-09-22T19:33:17.180Z,99917.56
2022-09-22T19:35:45.097Z,99915.25
2022-09-22T19:38:13.100Z,99913.28
2022-09-22T19:40:41.076Z,99917.00
2022-09-22T19:43:09.081Z,99918.19
2022-09-22T19:45:37.019Z,99918.56
2022-09-22T19:48:05.073Z,99921.81
2022-09-22T19:50:34.371Z,99915.34
2022-09-22T19:53:02.310Z,99911.94
2022-09-22T19:55:30.244Z,99913.72
2022-09-22T19:57:58.164Z,99921.72
2022-09-22T20:00:26.866Z,99920.72
2022-09-22T20:02:58.639Z,99928.78
2022-09-22T20:05:29.379Z,99926.09
2022-09-22T20:07:58.655Z,99926.09
2022-09-22T20:10:26.555Z,99932.41
2022-09-22T20:12:54.547Z,99928.34
2022-09-22T20:15:22.485Z,99934.69
2022-09-22T20:17:50.459Z,99942.03
2022-09-22T20:20:20.531Z,99938.50
2022-09-22T20:22:48.827Z,99917.09
2022-09-22T20:25:21.999Z,99947.59
2022-09-22T20:27:50.033Z,99944.97
2022-09-22T20:30:18.213Z,99944.97
2022-09-22T20:32:46.625Z,99944.88
2022-09-22T20:35:15.868Z,99944.88
2022-09-22T20:37:43.840Z,99949.41
2022-09-22T20:40:13.446Z,99958.16
2022-09-22T20:42:42.894Z,99957.31
2022-09-22T20:45:11.687Z,99943.66
2022-09-22T20:47:39.642Z,99949.84
2022-09-22T20:50:08.272Z,99947.81
2022-09-22T20:52:36.244Z,99955.16
2022-09-22T20:55:04.292Z,99949.75
2022-09-22T20:57:32.241Z,99967.25
2022-09-22T21:00:01.884Z,99958.59
2022-09-22T21:02:31.012Z,99958.78
2022-09-22T21:04:59.031Z,99956.06
2022-09-22T21:07:26.978Z,99957.38
2022-09-22T21:10:14.833Z,99960.75
2022-09-22T21:12:44.161Z,99951.25
2022-09-22T21:15:14.369Z,99948.09
2022-09-22T21:17:43.921Z,99958.13
2022-09-22T21:20:12.143Z,99954.22
2022-09-22T21:22:40.815Z,99952.72
2022-09-22T21:25:11.014Z,99956.97
2022-09-22T21:27:39.039Z,99967.03
2022-09-22T21:30:08.421Z,99961.22
2022-09-22T21:32:37.816Z,99954.38
2022-09-22T21:35:06.865Z,99954.09
2022-09-22T21:37:34.811Z,99956.97
2022-09-22T21:40:03.222Z,99954.94
2022-09-22T21:42:31.357Z,99957.88
2022-09-22T21:44:59.421Z,99965.59
2022-09-22T21:47:27.363Z,99967.63
2022-09-22T21:49:56.666Z,99959.06
2022-09-22T21:52:24.607Z,99961.16
2022-09-22T21:54:52.529Z,99962.06
2022-09-22T21:57:20.478Z,99962.59
2022-09-22T21:59:48.432Z,99969.31
2022-09-22T22:02:16.386Z,99973.94
2022-09-22T22:04:46.543Z,99967.50
2022-09-22T22:07:15.844Z,99964.81
2022-09-22T22:09:43.753Z,99965.66
2022-09-22T22:12:12.793Z,99973.94
2022-09-22T22:14:41.066Z,99973.09
2022-09-22T22:17:08.992Z,99968.09
2022-09-22T22:19:36.897Z,99954.78
2022-09-22T22:22:05.404Z,99962.78
2022-09-22T22:24:40.127Z,99961.41
2022-09-22T22:27:09.800Z,99959.25
2022-09-22T22:29:38.654Z,99960.91
2022-09-22T22:32:07.768Z,99962.59
2022-09-22T22:34:35.687Z,99960.63
2022-09-22T22:37:04.719Z,99959.41
2022-09-22T22:39:34.043Z,99968.16
2022-09-22T22:42:01.969Z,99966.47
2022-09-22T22:44:29.909Z,99956.06
2022-09-22T22:46:58.470Z,99954.91
2022-09-22T22:49:28.253Z,99957.59
2022-09-22T22:51:56.234Z,99959.03
2022-09-22T22:54:24.145Z,99958.50
2022-09-22T22:56:53.491Z,99970.06
2022-09-22T22:59:21.589Z,99956.28
2022-09-22T23:01:49.613Z,99967.47
2022-09-22T23:04:17.750Z,99969.91
2022-09-22T23:06:47.754Z,99966.56
2022-09-22T23:09:16.808Z,99977.22
2022-09-22T23:11:45.649Z,99970.63
2022-09-22T23:14:16.148Z,99971.97
2022-09-22T23:16:44.954Z,99973.38
2022-09-22T23:19:13.924Z,99968.19
2022-09-22T23:21:42.012Z,99974.56
2022-09-22T23:24:09.958Z,99970.56
2022-09-22T23:26:38.327Z,99969.72
2022-09-22T23:29:06.855Z,99979.59
2022-09-22T23:31:36.256Z,99979.00
2022-09-22T23:34:04.196Z,99977.59
2022-09-22T23:36:32.121Z,99983.03
2022-09-22T23:39:01.937Z,99989.69
2022-09-22T23:41:29.847Z,99987.88
2022-09-22T23:43:57.756Z,99986.06
2022-09-22T23:46:25.731Z,99980.72
2022-09-22T23:48:55.881Z,99982.59
2022-09-22T23:51:24.009Z,99981.75
2022-09-22T23:53:51.954Z,99976.19
2022-09-22T23:56:20.350Z,99973.66
2022-09-22T23:58:48.267Z,99975.00
